sensor_id;sensor_type;location;lat;lon;timestamp;P1;durP1;ratioP1;P2;durP2;ratioP2
10872;SDS011;34586;53.616;10.032;2023-05-10T00:01:37;4.37;;;2.40;;
10872;SDS011;34586;53.616;10.032;2023-05-10T00:04:03;3.17;;;2.57;;
10872;SDS011;34586;53.616;10.032;2023-05-10T00:06:28;4.50;;;2.53;;
10872;SDS011;34586;53.616;10.032;2023-05-10T00:08:54;3.33;;;2.50;;
10872;SDS011;34586;53.616;10.032;2023-05-10T00:11:20;3.80;;;2.50;;
10872;SDS011;34586;53.616;10.032;2023-05-10T00:13:46;4.07;;;2.30;;
10872;SDS011;34586;53.616;10.032;2023-05-10T00:16:12;3.03;;;2.10;;
10872;SDS011;34586;53.616;10.032;2023-05-10T00:18:38;3.60;;;2.50;;
10872;SDS011;34586;53.616;10.032;2023-05-10T00:21:04;4.13;;;2.70;;
10872;SDS011;34586;53.616;10.032;2023-05-10T00:23:30;5.00;;;2.57;;
10872;SDS011;34586;53.616;10.032;2023-05-10T00:25:56;5.57;;;2.67;;
10872;SDS011;34586;53.616;10.032;2023-05-10T00:28:21;3.37;;;2.30;;
10872;SDS011;34586;53.616;10.032;2023-05-10T00:30:47;3.07;;;2.60;;
10872;SDS011;34586;53.616;10.032;2023-05-10T00:33:13;4.00;;;2.57;;
10872;SDS011;34586;53.616;10.032;2023-05-10T00:35:38;4.60;;;2.47;;
10872;SDS011;34586;53.616;10.032;2023-05-10T00:38:04;7.37;;;2.57;;
10872;SDS011;34586;53.616;10.032;2023-05-10T00:40:30;5.20;;;3.03;;
10872;SDS011;34586;53.616;10.032;2023-05-10T00:42:55;4.73;;;2.83;;
10872;SDS011;34586;53.616;10.032;2023-05-10T00:45:22;2.90;;;2.23;;
10872;SDS011;34586;53.616;10.032;2023-05-10T00:47:48;3.60;;;2.20;;
10872;SDS011;34586;53.616;10.032;2023-05-10T00:50:14;3.90;;;3.03;;
10872;SDS011;34586;53.616;10.032;2023-05-10T00:52:40;3.93;;;2.60;;
10872;SDS011;34586;53.616;10.032;2023-05-10T00:55:07;4.20;;;2.40;;
10872;SDS011;34586;53.616;10.032;2023-05-10T00:57:34;3.73;;;2.40;;
10872;SDS011;34586;53.616;10.032;2023-05-10T01:00:00;3.23;;;2.27;;
10872;SDS011;34586;53.616;10.032;2023-05-10T01:02:28;2.70;;;2.50;;
10872;SDS011;34586;53.616;10.032;2023-05-10T01:04:53;2.77;;;2.53;;
10872;SDS011;34586;53.616;10.032;2023-05-10T01:07:19;4.00;;;2.40;;
10872;SDS011;34586;53.616;10.032;2023-05-10T01:09:45;3.03;;;2.23;;
10872;SDS011;34586;53.616;10.032;2023-05-10T01:12:11;4.90;;;2.53;;
10872;SDS011;34586;53.616;10.032;2023-05-10T01:14:37;2.57;;;2.37;;
10872;SDS011;34586;53.616;10.032;2023-05-10T01:17:03;5.07;;;2.63;;
10872;SDS011;34586;53.616;10.032;2023-05-10T01:19:30;4.03;;;2.63;;
10872;SDS011;34586;53.616;10.032;2023-05-10T01:33:39;5.80;;;2.57;;
10872;SDS011;34586;53.616;10.032;2023-05-10T01:36:55;3.53;;;2.47;;
10872;SDS011;34586;53.616;10.032;2023-05-10T01:39:10;4.97;;;2.70;;
10872;SDS011;34586;53.616;10.032;2023-05-10T01:44:13;3.73;;;2.80;;
10872;SDS011;34586;53.616;10.032;2023-05-10T01:46:58;4.50;;;2.50;;
10872;SDS011;34586;53.616;10.032;2023-05-10T01:49:32;4.47;;;2.50;;
10872;SDS011;34586;53.616;10.032;2023-05-10T01:52:06;2.63;;;2.30;;
10872;SDS011;34586;53.616;10.032;2023-05-10T01:54:35;2.83;;;2.57;;
10872;SDS011;34586;53.616;10.032;2023-05-10T01:57:06;6.57;;;2.80;;
10872;SDS011;34586;53.616;10.032;2023-05-10T01:59:35;4.80;;;2.70;;
10872;SDS011;34586;53.616;10.032;2023-05-10T02:02:06;5.63;;;2.50;;
10872;SDS011;34586;53.616;10.032;2023-05-10T02:04:36;2.93;;;2.40;;
10872;SDS011;34586;53.616;10.032;2023-05-10T02:07:04;2.60;;;2.40;;
10872;SDS011;34586;53.616;10.032;2023-05-10T02:09:32;2.70;;;2.50;;
10872;SDS011;34586;53.616;10.032;2023-05-10T02:11:59;3.00;;;2.50;;
10872;SDS011;34586;53.616;10.032;2023-05-10T02:14:27;5.10;;;2.80;;
10872;SDS011;34586;53.616;10.032;2023-05-10T02:16:57;4.60;;;2.67;;
10872;SDS011;34586;53.616;10.032;2023-05-10T02:19:25;2.73;;;2.53;;
10872;SDS011;34586;53.616;10.032;2023-05-10T02:21:52;3.03;;;2.73;;
10872;SDS011;34586;53.616;10.032;2023-05-10T02:24:20;4.77;;;2.90;;
10872;SDS011;34586;53.616;10.032;2023-05-10T02:26:47;5.37;;;2.67;;
10872;SDS011;34586;53.616;10.032;2023-05-10T02:29:14;2.70;;;2.50;;
10872;SDS011;34586;53.616;10.032;2023-05-10T02:31:41;7.40;;;2.90;;
10872;SDS011;34586;53.616;10.032;2023-05-10T02:34:08;5.63;;;2.77;;
10872;SDS011;34586;53.616;10.032;2023-05-10T02:36:36;6.50;;;2.50;;
10872;SDS011;34586;53.616;10.032;2023-05-10T02:39:03;3.67;;;2.70;;
10872;SDS011;34586;53.616;10.032;2023-05-10T02:41:30;3.33;;;2.93;;
10872;SDS011;34586;53.616;10.032;2023-05-10T02:43:57;3.37;;;2.80;;
10872;SDS011;34586;53.616;10.032;2023-05-10T02:46:26;4.53;;;3.33;;
10872;SDS011;34586;53.616;10.032;2023-05-10T02:48:51;5.63;;;3.00;;
10872;SDS011;34586;53.616;10.032;2023-05-10T02:51:18;3.93;;;2.47;;
10872;SDS011;34586;53.616;10.032;2023-05-10T02:53:46;2.97;;;2.67;;
10872;SDS011;34586;53.616;10.032;2023-05-10T02:56:15;4.57;;;2.97;;
10872;SDS011;34586;53.616;10.032;2023-05-10T02:58:48;4.97;;;2.50;;
10872;SDS011;34586;53.616;10.032;2023-05-10T03:01:13;4.07;;;3.00;;
10872;SDS011;34586;53.616;10.032;2023-05-10T03:03:40;4.30;;;2.80;;
10872;SDS011;34586;53.616;10.032;2023-05-10T03:06:06;4.73;;;3.03;;
10872;SDS011;34586;53.616;10.032;2023-05-10T03:08:31;7.40;;;2.80;;
10872;SDS011;34586;53.616;10.032;2023-05-10T03:11:13;5.73;;;3.00;;
10872;SDS011;34586;53.616;10.032;2023-05-10T03:13:52;3.50;;;2.63;;
10872;SDS011;34586;53.616;10.032;2023-05-10T03:16:23;3.40;;;2.83;;
10872;SDS011;34586;53.616;10.032;2023-05-10T03:19:11;3.20;;;2.60;;
10872;SDS011;34586;53.616;10.032;2023-05-10T03:21:49;4.03;;;2.70;;
10872;SDS011;34586;53.616;10.032;2023-05-10T03:24:16;2.90;;;2.70;;
10872;SDS011;34586;53.616;10.032;2023-05-10T03:26:46;5.40;;;3.10;;
10872;SDS011;34586;53.616;10.032;2023-05-10T03:29:13;5.17;;;3.00;;
10872;SDS011;34586;53.616;10.032;2023-05-10T03:31:40;3.87;;;3.00;;
10872;SDS011;34586;53.616;10.032;2023-05-10T03:34:06;4.67;;;3.27;;
10872;SDS011;34586;53.616;10.032;2023-05-10T03:36:32;2.80;;;2.60;;
10872;SDS011;34586;53.616;10.032;2023-05-10T03:38:58;3.43;;;3.13;;
10872;SDS011;34586;53.616;10.032;2023-05-10T03:41:24;3.40;;;2.40;;
10872;SDS011;34586;53.616;10.032;2023-05-10T03:43:50;4.50;;;2.70;;
10872;SDS011;34586;53.616;10.032;2023-05-10T03:46:16;4.50;;;2.93;;
10872;SDS011;34586;53.616;10.032;2023-05-10T03:48:41;3.90;;;2.60;;
10872;SDS011;34586;53.616;10.032;2023-05-10T03:51:07;3.50;;;3.00;;
10872;SDS011;34586;53.616;10.032;2023-05-10T03:53:33;5.30;;;2.80;;
10872;SDS011;34586;53.616;10.032;2023-05-10T03:55:58;2.87;;;2.63;;
10872;SDS011;34586;53.616;10.032;2023-05-10T03:58:24;4.67;;;3.40;;
10872;SDS011;34586;53.616;10.032;2023-05-10T04:00:50;3.43;;;2.97;;
10872;SDS011;34586;53.616;10.032;2023-05-10T04:03:16;7.37;;;3.17;;
10872;SDS011;34586;53.616;10.032;2023-05-10T04:05:42;4.13;;;2.90;;
10872;SDS011;34586;53.616;10.032;2023-05-10T04:08:08;5.90;;;3.00;;
10872;SDS011;34586;53.616;10.032;2023-05-10T04:10:34;3.40;;;3.10;;
10872;SDS011;34586;53.616;10.032;2023-05-10T04:12:59;3.37;;;3.03;;
10872;SDS011;34586;53.616;10.032;2023-05-10T04:15:25;3.77;;;2.97;;
10872;SDS011;34586;53.616;10.032;2023-05-10T04:17:50;3.83;;;2.80;;
10872;SDS011;34586;53.616;10.032;2023-05-10T04:20:16;3.27;;;2.97;;
10872;SDS011;34586;53.616;10.032;2023-05-10T04:22:42;3.93;;;2.73;;
10872;SDS011;34586;53.616;10.032;2023-05-10T04:25:08;3.03;;;2.73;;
10872;SDS011;34586;53.616;10.032;2023-05-10T04:27:34;3.77;;;3.03;;
10872;SDS011;34586;53.616;10.032;2023-05-10T04:29:59;6.07;;;3.30;;
10872;SDS011;34586;53.616;10.032;2023-05-10T04:32:25;5.63;;;2.93;;
10872;SDS011;34586;53.616;10.032;2023-05-10T04:34:51;3.73;;;3.00;;
10872;SDS011;34586;53.616;10.032;2023-05-10T04:37:18;5.13;;;2.93;;
10872;SDS011;34586;53.616;10.032;2023-05-10T04:39:44;3.40;;;3.10;;
10872;SDS011;34586;53.616;10.032;2023-05-10T04:42:10;4.73;;;2.90;;
10872;SDS011;34586;53.616;10.032;2023-05-10T04:44:36;4.33;;;3.00;;
10872;SDS011;34586;53.616;10.032;2023-05-10T04:47:02;4.13;;;2.90;;
10872;SDS011;34586;53.616;10.032;2023-05-10T04:49:28;5.50;;;3.00;;
10872;SDS011;34586;53.616;10.032;2023-05-10T04:51:54;3.53;;;3.23;;
10872;SDS011;34586;53.616;10.032;2023-05-10T04:54:20;3.17;;;2.70;;
10872;SDS011;34586;53.616;10.032;2023-05-10T04:56:46;3.17;;;2.87;;
10872;SDS011;34586;53.616;10.032;2023-05-10T04:59:11;4.17;;;3.17;;
10872;SDS011;34586;53.616;10.032;2023-05-10T05:01:37;4.23;;;3.00;;
10872;SDS011;34586;53.616;10.032;2023-05-10T05:04:02;6.23;;;3.03;;
10872;SDS011;34586;53.616;10.032;2023-05-10T05:06:28;4.23;;;3.00;;
10872;SDS011;34586;53.616;10.032;2023-05-10T05:08:54;3.23;;;2.73;;
10872;SDS011;34586;53.616;10.032;2023-05-10T05:11:19;3.87;;;3.03;;
10872;SDS011;34586;53.616;10.032;2023-05-10T05:13:46;3.33;;;3.00;;
10872;SDS011;34586;53.616;10.032;2023-05-10T05:16:11;5.37;;;3.23;;
10872;SDS011;34586;53.616;10.032;2023-05-10T05:18:37;3.90;;;3.23;;
10872;SDS011;34586;53.616;10.032;2023-05-10T05:21:03;3.93;;;3.03;;
10872;SDS011;34586;53.616;10.032;2023-05-10T05:23:37;6.43;;;3.00;;
10872;SDS011;34586;53.616;10.032;2023-05-10T05:26:03;7.70;;;3.67;;
10872;SDS011;34586;53.616;10.032;2023-05-10T05:28:29;5.53;;;3.10;;
10872;SDS011;34586;53.616;10.032;2023-05-10T05:30:57;3.23;;;2.87;;
10872;SDS011;34586;53.616;10.032;2023-05-10T05:33:23;4.13;;;3.13;;
10872;SDS011;34586;53.616;10.032;2023-05-10T05:35:48;4.17;;;3.40;;
10872;SDS011;34586;53.616;10.032;2023-05-10T05:38:15;4.20;;;2.90;;
10872;SDS011;34586;53.616;10.032;2023-05-10T05:40:42;3.57;;;2.67;;
10872;SDS011;34586;53.616;10.032;2023-05-10T05:43:07;3.03;;;2.70;;
10872;SDS011;34586;53.616;10.032;2023-05-10T05:45:33;4.30;;;3.33;;
10872;SDS011;34586;53.616;10.032;2023-05-10T05:47:59;3.13;;;2.87;;
10872;SDS011;34586;53.616;10.032;2023-05-10T05:50:24;3.47;;;3.17;;
10872;SDS011;34586;53.616;10.032;2023-05-10T05:52:50;6.70;;;3.43;;
10872;SDS011;34586;53.616;10.032;2023-05-10T05:55:16;3.40;;;2.50;;
10872;SDS011;34586;53.616;10.032;2023-05-10T05:57:41;3.87;;;2.93;;
10872;SDS011;34586;53.616;10.032;2023-05-10T06:00:07;4.53;;;2.87;;
10872;SDS011;34586;53.616;10.032;2023-05-10T06:02:33;6.23;;;3.17;;
10872;SDS011;34586;53.616;10.032;2023-05-10T06:04:59;3.07;;;2.87;;
10872;SDS011;34586;53.616;10.032;2023-05-10T06:07:24;3.13;;;2.77;;
10872;SDS011;34586;53.616;10.032;2023-05-10T06:09:50;4.70;;;3.00;;
10872;SDS011;34586;53.616;10.032;2023-05-10T06:12:16;5.50;;;3.17;;
10872;SDS011;34586;53.616;10.032;2023-05-10T06:14:41;4.97;;;3.10;;
10872;SDS011;34586;53.616;10.032;2023-05-10T06:17:07;3.33;;;2.50;;
10872;SDS011;34586;53.616;10.032;2023-05-10T06:19:32;4.93;;;2.70;;
10872;SDS011;34586;53.616;10.032;2023-05-10T06:21:58;7.77;;;3.57;;
10872;SDS011;34586;53.616;10.032;2023-05-10T06:24:24;4.57;;;3.07;;
10872;SDS011;34586;53.616;10.032;2023-05-10T06:26:49;3.50;;;2.57;;
10872;SDS011;34586;53.616;10.032;2023-05-10T06:29:15;4.67;;;2.90;;
10872;SDS011;34586;53.616;10.032;2023-05-10T06:31:41;2.70;;;2.47;;
10872;SDS011;34586;53.616;10.032;2023-05-10T06:34:06;3.87;;;3.00;;
10872;SDS011;34586;53.616;10.032;2023-05-10T06:36:33;6.87;;;3.00;;
10872;SDS011;34586;53.616;10.032;2023-05-10T06:38:59;3.00;;;2.70;;
10872;SDS011;34586;53.616;10.032;2023-05-10T06:41:24;2.70;;;2.50;;
10872;SDS011;34586;53.616;10.032;2023-05-10T06:43:50;7.83;;;3.10;;
10872;SDS011;34586;53.616;10.032;2023-05-10T06:46:15;6.03;;;2.80;;
10872;SDS011;34586;53.616;10.032;2023-05-10T06:48:41;4.13;;;2.80;;
10872;SDS011;34586;53.616;10.032;2023-05-10T06:51:07;2.67;;;2.47;;
10872;SDS011;34586;53.616;10.032;2023-05-10T06:53:32;4.20;;;2.53;;
10872;SDS011;34586;53.616;10.032;2023-05-10T06:55:58;4.13;;;2.70;;
10872;SDS011;34586;53.616;10.032;2023-05-10T06:58:23;3.37;;;3.07;;
10872;SDS011;34586;53.616;10.032;2023-05-10T07:00:49;4.57;;;2.50;;
10872;SDS011;34586;53.616;10.032;2023-05-10T07:03:15;4.77;;;2.53;;
10872;SDS011;34586;53.616;10.032;2023-05-10T07:05:40;2.80;;;2.37;;
10872;SDS011;34586;53.616;10.032;2023-05-10T07:08:06;5.47;;;3.23;;
10872;SDS011;34586;53.616;10.032;2023-05-10T07:10:32;6.10;;;2.60;;
10872;SDS011;34586;53.616;10.032;2023-05-10T07:12:58;5.27;;;2.30;;
10872;SDS011;34586;53.616;10.032;2023-05-10T07:15:23;3.53;;;2.67;;
10872;SDS011;34586;53.616;10.032;2023-05-10T07:17:49;3.80;;;2.70;;
10872;SDS011;34586;53.616;10.032;2023-05-10T07:20:15;3.20;;;2.90;;
10872;SDS011;34586;53.616;10.032;2023-05-10T07:22:40;4.07;;;2.83;;
10872;SDS011;34586;53.616;10.032;2023-05-10T07:25:06;2.90;;;2.37;;
10872;SDS011;34586;53.616;10.032;2023-05-10T07:27:32;3.37;;;2.53;;
10872;SDS011;34586;53.616;10.032;2023-05-10T07:29:57;3.67;;;2.77;;
10872;SDS011;34586;53.616;10.032;2023-05-10T07:32:23;5.07;;;2.70;;
10872;SDS011;34586;53.616;10.032;2023-05-10T07:34:49;3.53;;;2.67;;
10872;SDS011;34586;53.616;10.032;2023-05-10T07:37:14;3.73;;;2.80;;
10872;SDS011;34586;53.616;10.032;2023-05-10T07:39:40;3.40;;;2.50;;
10872;SDS011;34586;53.616;10.032;2023-05-10T07:42:05;2.93;;;2.73;;
10872;SDS011;34586;53.616;10.032;2023-05-10T07:44:31;3.70;;;2.60;;
10872;SDS011;34586;53.616;10.032;2023-05-10T07:46:57;3.07;;;2.80;;
10872;SDS011;34586;53.616;10.032;2023-05-10T07:49:22;7.47;;;3.27;;
10872;SDS011;34586;53.616;10.032;2023-05-10T07:51:51;2.77;;;2.50;;
10872;SDS011;34586;53.616;10.032;2023-05-10T07:54:16;3.20;;;2.70;;
10872;SDS011;34586;53.616;10.032;2023-05-10T07:56:42;4.17;;;3.07;;
10872;SDS011;34586;53.616;10.032;2023-05-10T07:59:14;4.93;;;2.70;;
10872;SDS011;34586;53.616;10.032;2023-05-10T08:01:41;3.93;;;3.10;;
10872;SDS011;34586;53.616;10.032;2023-05-10T08:04:07;5.30;;;2.80;;
10872;SDS011;34586;53.616;10.032;2023-05-10T08:06:34;4.70;;;3.57;;
10872;SDS011;34586;53.616;10.032;2023-05-10T08:08:59;3.20;;;2.67;;
10872;SDS011;34586;53.616;10.032;2023-05-10T08:11:25;3.40;;;3.00;;
10872;SDS011;34586;53.616;10.032;2023-05-10T08:13:52;4.17;;;3.10;;
10872;SDS011;34586;53.616;10.032;2023-05-10T08:16:18;3.73;;;2.67;;
10872;SDS011;34586;53.616;10.032;2023-05-10T08:18:44;4.30;;;2.53;;
10872;SDS011;34586;53.616;10.032;2023-05-10T08:21:11;2.30;;;2.20;;
10872;SDS011;34586;53.616;10.032;2023-05-10T08:23:37;3.20;;;2.57;;
10872;SDS011;34586;53.616;10.032;2023-05-10T08:26:04;3.83;;;2.63;;
10872;SDS011;34586;53.616;10.032;2023-05-10T08:28:30;4.53;;;2.57;;
10872;SDS011;34586;53.616;10.032;2023-05-10T08:30:55;5.50;;;2.63;;
10872;SDS011;34586;53.616;10.032;2023-05-10T08:33:21;4.00;;;2.43;;
10872;SDS011;34586;53.616;10.032;2023-05-10T08:35:46;3.90;;;2.80;;
10872;SDS011;34586;53.616;10.032;2023-05-10T08:38:12;2.93;;;2.43;;
10872;SDS011;34586;53.616;10.032;2023-05-10T08:40:39;3.87;;;2.90;;
10872;SDS011;34586;53.616;10.032;2023-05-10T08:43:08;3.37;;;2.53;;
10872;SDS011;34586;53.616;10.032;2023-05-10T08:45:37;2.50;;;2.30;;
10872;SDS011;34586;53.616;10.032;2023-05-10T08:48:04;3.10;;;2.80;;
10872;SDS011;34586;53.616;10.032;2023-05-10T08:50:31;3.37;;;2.70;;
10872;SDS011;34586;53.616;10.032;2023-05-10T08:52:57;3.07;;;2.87;;
10872;SDS011;34586;53.616;10.032;2023-05-10T08:55:26;5.97;;;2.67;;
10872;SDS011;34586;53.616;10.032;2023-05-10T08:57:52;5.77;;;2.80;;
10872;SDS011;34586;53.616;10.032;2023-05-10T09:00:18;3.23;;;2.93;;
10872;SDS011;34586;53.616;10.032;2023-05-10T09:02:44;5.40;;;3.47;;
10872;SDS011;34586;53.616;10.032;2023-05-10T09:05:11;2.77;;;2.57;;
10872;SDS011;34586;53.616;10.032;2023-05-10T09:07:37;2.83;;;2.63;;
10872;SDS011;34586;53.616;10.032;2023-05-10T09:10:04;3.47;;;3.13;;
10872;SDS011;34586;53.616;10.032;2023-05-10T09:12:30;4.23;;;3.20;;
10872;SDS011;34586;53.616;10.032;2023-05-10T09:14:55;3.13;;;2.93;;
10872;SDS011;34586;53.616;10.032;2023-05-10T09:17:23;2.70;;;2.50;;
10872;SDS011;34586;53.616;10.032;2023-05-10T09:19:50;4.10;;;2.77;;
10872;SDS011;34586;53.616;10.032;2023-05-10T09:22:24;4.63;;;2.60;;
10872;SDS011;34586;53.616;10.032;2023-05-10T09:27:32;3.47;;;2.90;;
10872;SDS011;34586;53.616;10.032;2023-05-10T09:29:58;3.20;;;2.70;;
10872;SDS011;34586;53.616;10.032;2023-05-10T09:32:39;7.63;;;3.50;;
10872;SDS011;34586;53.616;10.032;2023-05-10T09:37:35;3.63;;;2.50;;
10872;SDS011;34586;53.616;10.032;2023-05-10T09:40:03;5.83;;;3.10;;
10872;SDS011;34586;53.616;10.032;2023-05-10T09:42:29;5.03;;;3.00;;
10872;SDS011;34586;53.616;10.032;2023-05-10T09:44:59;6.53;;;3.20;;
10872;SDS011;34586;53.616;10.032;2023-05-10T09:47:35;5.40;;;2.87;;
10872;SDS011;34586;53.616;10.032;2023-05-10T09:50:01;4.13;;;2.93;;
10872;SDS011;34586;53.616;10.032;2023-05-10T09:52:29;5.97;;;3.33;;
10872;SDS011;34586;53.616;10.032;2023-05-10T09:54:55;4.93;;;3.47;;
10872;SDS011;34586;53.616;10.032;2023-05-10T09:57:22;3.57;;;3.10;;
10872;SDS011;34586;53.616;10.032;2023-05-10T09:59:48;3.33;;;3.03;;
10872;SDS011;34586;53.616;10.032;2023-05-10T10:02:15;5.50;;;2.97;;
10872;SDS011;34586;53.616;10.032;2023-05-10T10:04:42;4.03;;;3.03;;
10872;SDS011;34586;53.616;10.032;2023-05-10T10:07:08;5.07;;;3.73;;
10872;SDS011;34586;53.616;10.032;2023-05-10T10:09:34;4.27;;;3.60;;
10872;SDS011;34586;53.616;10.032;2023-05-10T10:12:00;5.27;;;4.03;;
10872;SDS011;34586;53.616;10.032;2023-05-10T10:14:27;4.33;;;3.80;;
10872;SDS011;34586;53.616;10.032;2023-05-10T10:16:54;4.30;;;3.47;;
10872;SDS011;34586;53.616;10.032;2023-05-10T10:19:20;4.60;;;4.20;;
10872;SDS011;34586;53.616;10.032;2023-05-10T10:21:47;4.63;;;4.13;;
10872;SDS011;34586;53.616;10.032;2023-05-10T10:24:13;6.57;;;4.70;;
10872;SDS011;34586;53.616;10.032;2023-05-10T10:26:39;4.83;;;4.33;;
10872;SDS011;34586;53.616;10.032;2023-05-10T10:31:37;6.87;;;5.07;;
10872;SDS011;34586;53.616;10.032;2023-05-10T10:34:07;6.73;;;4.97;;
10872;SDS011;34586;53.616;10.032;2023-05-10T10:36:42;6.43;;;5.53;;
10872;SDS011;34586;53.616;10.032;2023-05-10T10:39:10;6.57;;;5.50;;
10872;SDS011;34586;53.616;10.032;2023-05-10T10:41:40;6.30;;;5.23;;
10872;SDS011;34586;53.616;10.032;2023-05-10T10:44:25;5.47;;;4.90;;
10872;SDS011;34586;53.616;10.032;2023-05-10T11:03:03;8.23;;;5.67;;
10872;SDS011;34586;53.616;10.032;2023-05-10T11:05:49;6.20;;;5.23;;
10872;SDS011;34586;53.616;10.032;2023-05-10T11:08:25;5.37;;;4.93;;
10872;SDS011;34586;53.616;10.032;2023-05-10T11:11:14;6.07;;;5.60;;
10872;SDS011;34586;53.616;10.032;2023-05-10T11:13:43;6.53;;;4.97;;
10872;SDS011;34586;53.616;10.032;2023-05-10T11:16:25;5.47;;;5.00;;
10872;SDS011;34586;53.616;10.032;2023-05-10T11:19:13;7.30;;;4.60;;
10872;SDS011;34586;53.616;10.032;2023-05-10T11:21:51;5.70;;;4.77;;
10872;SDS011;34586;53.616;10.032;2023-05-10T11:24:38;5.27;;;4.77;;
10872;SDS011;34586;53.616;10.032;2023-05-10T11:27:04;5.40;;;4.77;;
10872;SDS011;34586;53.616;10.032;2023-05-10T11:29:30;6.83;;;6.10;;
10872;SDS011;34586;53.616;10.032;2023-05-10T11:31:57;6.30;;;5.40;;
10872;SDS011;34586;53.616;10.032;2023-05-10T11:34:24;6.00;;;5.40;;
10872;SDS011;34586;53.616;10.032;2023-05-10T11:36:54;6.10;;;5.23;;
10872;SDS011;34586;53.616;10.032;2023-05-10T11:39:20;5.27;;;4.77;;
10872;SDS011;34586;53.616;10.032;2023-05-10T11:41:49;5.43;;;4.93;;
10872;SDS011;34586;53.616;10.032;2023-05-10T11:44:15;6.43;;;5.67;;
10872;SDS011;34586;53.616;10.032;2023-05-10T11:46:41;5.90;;;5.33;;
10872;SDS011;34586;53.616;10.032;2023-05-10T11:49:07;5.20;;;4.70;;
10872;SDS011;34586;53.616;10.032;2023-05-10T11:51:33;5.83;;;5.33;;
10872;SDS011;34586;53.616;10.032;2023-05-10T11:54:04;6.20;;;5.60;;
10872;SDS011;34586;53.616;10.032;2023-05-10T11:56:33;6.37;;;5.63;;
10872;SDS011;34586;53.616;10.032;2023-05-10T11:58:59;5.50;;;5.10;;
10872;SDS011;34586;53.616;10.032;2023-05-10T12:01:26;8.53;;;6.17;;
10872;SDS011;34586;53.616;10.032;2023-05-10T12:03:54;7.07;;;5.90;;
10872;SDS011;34586;53.616;10.032;2023-05-10T12:06:28;6.23;;;5.73;;
10872;SDS011;34586;53.616;10.032;2023-05-10T12:08:56;7.50;;;6.90;;
10872;SDS011;34586;53.616;10.032;2023-05-10T12:11:26;7.57;;;6.77;;
10872;SDS011;34586;53.616;10.032;2023-05-10T12:13:53;7.77;;;7.07;;
10872;SDS011;34586;53.616;10.032;2023-05-10T12:16:20;9.57;;;6.97;;
10872;SDS011;34586;53.616;10.032;2023-05-10T12:18:48;7.53;;;6.53;;
10872;SDS011;34586;53.616;10.032;2023-05-10T12:21:14;7.23;;;6.63;;
10872;SDS011;34586;53.616;10.032;2023-05-10T12:23:40;6.37;;;5.87;;
10872;SDS011;34586;53.616;10.032;2023-05-10T12:26:08;9.23;;;6.00;;
10872;SDS011;34586;53.616;10.032;2023-05-10T12:28:35;6.23;;;5.60;;
10872;SDS011;34586;53.616;10.032;2023-05-10T12:31:01;6.20;;;5.60;;
10872;SDS011;34586;53.616;10.032;2023-05-10T12:33:27;5.93;;;5.43;;
10872;SDS011;34586;53.616;10.032;2023-05-10T12:36:01;8.77;;;5.90;;
10872;SDS011;34586;53.616;10.032;2023-05-10T12:38:28;6.73;;;5.77;;
10872;SDS011;34586;53.616;10.032;2023-05-10T12:40:59;8.13;;;6.60;;
10872;SDS011;34586;53.616;10.032;2023-05-10T12:43:26;6.63;;;6.13;;
10872;SDS011;34586;53.616;10.032;2023-05-10T12:45:52;6.07;;;5.33;;
10872;SDS011;34586;53.616;10.032;2023-05-10T12:48:18;5.80;;;5.30;;
10872;SDS011;34586;53.616;10.032;2023-05-10T12:50:45;5.20;;;4.80;;
10872;SDS011;34586;53.616;10.032;2023-05-10T12:53:11;7.03;;;5.40;;
10872;SDS011;34586;53.616;10.032;2023-05-10T12:55:38;5.13;;;4.77;;
10872;SDS011;34586;53.616;10.032;2023-05-10T12:58:04;9.60;;;6.13;;
10872;SDS011;34586;53.616;10.032;2023-05-10T13:00:30;5.63;;;4.97;;
10872;SDS011;34586;53.616;10.032;2023-05-10T13:02:55;4.57;;;4.27;;
10872;SDS011;34586;53.616;10.032;2023-05-10T13:05:21;5.47;;;5.03;;
10872;SDS011;34586;53.616;10.032;2023-05-10T13:07:47;5.07;;;4.67;;
10872;SDS011;34586;53.616;10.032;2023-05-10T13:10:12;7.20;;;6.03;;
10872;SDS011;34586;53.616;10.032;2023-05-10T13:12:38;5.07;;;4.67;;
10872;SDS011;34586;53.616;10.032;2023-05-10T13:15:03;5.90;;;5.13;;
10872;SDS011;34586;53.616;10.032;2023-05-10T13:17:29;5.03;;;4.30;;
10872;SDS011;34586;53.616;10.032;2023-05-10T13:19:55;4.37;;;4.00;;
10872;SDS011;34586;53.616;10.032;2023-05-10T13:22:21;3.60;;;3.40;;
10872;SDS011;34586;53.616;10.032;2023-05-10T13:24:46;4.50;;;4.20;;
10872;SDS011;34586;53.616;10.032;2023-05-10T13:27:12;4.23;;;3.70;;
10872;SDS011;34586;53.616;10.032;2023-05-10T13:29:37;4.80;;;4.50;;
10872;SDS011;34586;53.616;10.032;2023-05-10T13:32:03;5.67;;;5.27;;
10872;SDS011;34586;53.616;10.032;2023-05-10T13:34:29;5.53;;;5.03;;
10872;SDS011;34586;53.616;10.032;2023-05-10T13:36:54;5.50;;;5.00;;
10872;SDS011;34586;53.616;10.032;2023-05-10T13:39:21;6.70;;;5.37;;
10872;SDS011;34586;53.616;10.032;2023-05-10T13:41:47;4.70;;;4.40;;
10872;SDS011;34586;53.616;10.032;2023-05-10T13:44:13;4.67;;;4.20;;
10872;SDS011;34586;53.616;10.032;2023-05-10T13:46:39;4.13;;;3.83;;
10872;SDS011;34586;53.616;10.032;2023-05-10T13:49:06;4.00;;;3.70;;
10872;SDS011;34586;53.616;10.032;2023-05-10T13:51:33;4.20;;;3.90;;
10872;SDS011;34586;53.616;10.032;2023-05-10T13:53:59;4.33;;;3.93;;
10872;SDS011;34586;53.616;10.032;2023-05-10T13:56:24;4.53;;;4.20;;
10872;SDS011;34586;53.616;10.032;2023-05-10T13:58:50;4.33;;;3.80;;
10872;SDS011;34586;53.616;10.032;2023-05-10T14:01:16;4.00;;;3.70;;
10872;SDS011;34586;53.616;10.032;2023-05-10T14:03:41;2.93;;;2.60;;
10872;SDS011;34586;53.616;10.032;2023-05-10T14:06:07;3.60;;;3.13;;
10872;SDS011;34586;53.616;10.032;2023-05-10T14:08:33;3.10;;;2.90;;
10872;SDS011;34586;53.616;10.032;2023-05-10T14:11:00;3.67;;;3.33;;
10872;SDS011;34586;53.616;10.032;2023-05-10T14:13:25;3.80;;;3.50;;
10872;SDS011;34586;53.616;10.032;2023-05-10T14:15:53;3.90;;;3.60;;
10872;SDS011;34586;53.616;10.032;2023-05-10T14:18:19;3.10;;;2.90;;
10872;SDS011;34586;53.616;10.032;2023-05-10T14:20:45;4.80;;;4.27;;
10872;SDS011;34586;53.616;10.032;2023-05-10T14:23:11;4.53;;;3.70;;
10872;SDS011;34586;53.616;10.032;2023-05-10T14:25:37;4.37;;;3.97;;
10872;SDS011;34586;53.616;10.032;2023-05-10T14:28:05;3.37;;;3.17;;
10872;SDS011;34586;53.616;10.032;2023-05-10T14:30:30;4.50;;;4.10;;
10872;SDS011;34586;53.616;10.032;2023-05-10T14:32:57;4.40;;;4.10;;
10872;SDS011;34586;53.616;10.032;2023-05-10T14:35:23;3.57;;;3.37;;
10872;SDS011;34586;53.616;10.032;2023-05-10T14:37:49;3.57;;;3.27;;
10872;SDS011;34586;53.616;10.032;2023-05-10T14:40:15;3.93;;;3.63;;
10872;SDS011;34586;53.616;10.032;2023-05-10T14:42:42;3.77;;;3.57;;
10872;SDS011;34586;53.616;10.032;2023-05-10T14:45:08;4.00;;;3.80;;
10872;SDS011;34586;53.616;10.032;2023-05-10T14:47:34;3.73;;;3.53;;
10872;SDS011;34586;53.616;10.032;2023-05-10T14:50:00;4.13;;;3.83;;
10872;SDS011;34586;53.616;10.032;2023-05-10T14:52:25;3.50;;;3.30;;
10872;SDS011;34586;53.616;10.032;2023-05-10T14:54:51;3.70;;;3.40;;
10872;SDS011;34586;53.616;10.032;2023-05-10T14:57:17;3.43;;;3.13;;
10872;SDS011;34586;53.616;10.032;2023-05-10T14:59:43;3.83;;;3.47;;
10872;SDS011;34586;53.616;10.032;2023-05-10T15:02:08;3.60;;;3.30;;
10872;SDS011;34586;53.616;10.032;2023-05-10T15:04:35;3.20;;;2.97;;
10872;SDS011;34586;53.616;10.032;2023-05-10T15:07:00;3.93;;;3.53;;
10872;SDS011;34586;53.616;10.032;2023-05-10T15:09:26;4.40;;;4.10;;
10872;SDS011;34586;53.616;10.032;2023-05-10T15:11:55;2.97;;;2.77;;